Time;durP1;ratioP1;P1;durP2;ratioP2;P2;SDS_P1;SDS_P2;PMS_P1;PMS_P2;Temp;Humidity;BMP_temperature;BMP_pressure;BME280_temperature;BME280_humidity;BME280_pressure;Samples;Min_cycle;Max_cycle;Signal;HPM_P1;HPM_P2
2021/01/15 00:07:29;;;;;;;10.40;5.82;;;-0.20;99.90;;;;;;21113334;28;20036;-81
2021/01/15 00:17:34;;;;;;;10.02;6.13;;;-0.10;99.90;;;;;;21085687;28;20036;-80
2021/01/15 00:27:39;;;;;;;11.27;6.03;;;-0.10;99.90;;;;;;21083598;28;20395;-80
2021/01/15 00:37:40;;;;;;;11.63;6.18;;;-0.10;99.90;;;;;;21085816;28;20028;-82
2021/01/15 00:47:41;;;;;;;10.70;6.05;;;-0.10;99.90;;;;;;21086810;28;20035;-82
2021/01/15 00:57:42;;;;;;;10.15;5.45;;;-0.10;99.90;;;;;;21115160;28;20028;-79
2021/01/15 01:07:47;;;;;;;10.77;5.68;;;-0.10;99.90;;;;;;21109672;28;20039;-81
2021/01/15 01:17:48;;;;;;;11.65;6.57;;;-0.10;99.90;;;;;;21179646;22;20073;-77
2021/01/15 01:27:49;;;;;;;15.68;7.68;;;-0.10;99.90;;;;;;21185818;28;20035;-77
2021/01/15 01:37:49;;;;;;;13.63;7.32;;;-0.10;99.90;;;;;;21167236;28;20446;-78
2021/01/15 01:47:52;;;;;;;15.40;7.65;;;-0.20;99.90;;;;;;21185034;28;20132;-78
2021/01/15 01:57:53;;;;;;;15.30;7.95;;;-0.20;99.90;;;;;;21184617;28;20024;-77
2021/01/15 02:07:54;;;;;;;13.23;7.40;;;-0.20;99.90;;;;;;21184343;28;20035;-78
2021/01/15 02:18:05;;;;;;;13.38;7.35;;;-0.10;99.90;;;;;;21173789;28;20474;-78
2021/01/15 02:28:20;;;;;;;7.47;4.70;;;-0.10;99.90;;;;;;21170006;28;20028;-78
2021/01/15 02:38:48;;;;;;;14.55;7.47;;;-0.10;99.90;;;;;;21169042;28;20445;-78
2021/01/15 02:48:52;;;;;;;11.75;6.72;;;-0.10;99.90;;;;;;21150029;28;20506;-78
2021/01/15 02:58:53;;;;;;;14.20;7.22;;;-0.10;99.90;;;;;;21167407;28;20035;-77
2021/01/15 03:08:55;;;;;;;17.95;8.40;;;-0.20;99.90;;;;;;21166529;28;20081;-77
2021/01/15 03:18:59;;;;;;;15.35;7.97;;;-0.10;99.90;;;;;;21166418;28;20076;-78
2021/01/15 03:29:01;;;;;;;14.75;7.68;;;-0.20;99.90;;;;;;21164689;28;20069;-77
2021/01/15 03:39:03;;;;;;;15.00;8.60;;;-0.20;99.90;;;;;;21163980;28;20049;-77
2021/01/15 03:49:04;;;;;;;18.45;9.15;;;-0.20;99.90;;;;;;21163167;28;20024;-77
2021/01/15 03:59:05;;;;;;;22.17;9.45;;;-0.20;99.90;;;;;;21144089;28;20448;-79
2021/01/15 04:09:05;;;;;;;17.25;8.20;;;-0.20;99.90;;;;;;21161837;28;20104;-78
2021/01/15 04:19:06;;;;;;;18.23;8.93;;;-0.10;99.90;;;;;;21161196;28;20063;-77
2021/01/15 04:29:07;;;;;;;21.25;8.88;;;-0.20;99.90;;;;;;21140803;28;20162;-76
2021/01/15 04:39:08;;;;;;;25.90;10.35;;;-0.20;99.90;;;;;;21157529;28;20035;-79
2021/01/15 04:49:12;;;;;;;20.48;10.40;;;-0.20;99.90;;;;;;21142058;28;20088;-79
2021/01/15 04:59:13;;;;;;;21.92;9.13;;;-0.20;99.90;;;;;;21161110;28;20024;-79
2021/01/15 05:09:20;;;;;;;24.35;10.52;;;-0.20;99.90;;;;;;21144811;28;20088;-78
2021/01/15 05:19:20;;;;;;;20.55;10.05;;;-0.30;99.90;;;;;;21104303;28;20031;-77
2021/01/15 05:29:21;;;;;;;24.83;11.18;;;-0.30;99.90;;;;;;21148570;28;20023;-78
2021/01/15 05:39:24;;;;;;;22.63;10.15;;;-0.30;99.90;;;;;;21165121;28;20024;-78
2021/01/15 05:49:26;;;;;;;20.02;9.88;;;-0.30;99.90;;;;;;21169534;28;20027;-78
2021/01/15 05:59:27;;;;;;;31.33;15.52;;;-0.30;99.90;;;;;;21177811;28;20032;-78
2021/01/15 06:09:28;;;;;;;28.10;13.13;;;-0.30;99.90;;;;;;21153988;28;20035;-77
2021/01/15 06:19:45;;;;;;;23.20;10.90;;;-0.40;99.90;;;;;;21165779;28;20042;-78
2021/01/15 06:29:49;;;;;;;20.83;10.27;;;-0.30;99.90;;;;;;21177551;28;20037;-77
2021/01/15 06:40:05;;;;;;;21.45;11.15;;;-0.20;99.90;;;;;;21161234;28;20126;-79
2021/01/15 06:50:12;;;;;;;20.23;9.63;;;-0.30;99.90;;;;;;21159108;28;20378;-79
2021/01/15 07:00:14;;;;;;;19.80;9.90;;;-0.30;99.90;;;;;;21176433;28;20023;-79
2021/01/15 07:10:15;;;;;;;230.98;62.75;;;-0.30;99.90;;;;;;21143999;22;20057;-79
2021/01/15 07:20:20;;;;;;;25.85;11.50;;;-0.30;99.90;;;;;;20941240;28;20124;-80
2021/01/15 07:30:26;;;;;;;26.50;12.07;;;-0.50;99.90;;;;;;20941395;28;20029;-79
2021/01/15 07:40:35;;;;;;;28.35;12.07;;;-0.40;99.90;;;;;;20940960;28;20029;-80
2021/01/15 07:50:47;;;;;;;22.48;11.32;;;-0.30;99.90;;;;;;20923004;28;20040;-80
2021/01/15 08:00:48;;;;;;;20.25;10.18;;;-0.20;99.90;;;;;;20949368;28;20055;-78
2021/01/15 08:10:49;;;;;;;16.75;8.63;;;-0.20;99.90;;;;;;20942505;28;20041;-79
2021/01/15 08:20:54;;;;;;;18.75;8.50;;;-0.30;99.90;;;;;;20985581;28;20036;-79
2021/01/15 08:31:03;;;;;;;22.08;11.15;;;-0.10;99.90;;;;;;20964983;28;20407;-80
2021/01/15 08:41:23;;;;;;;15.77;7.53;;;0.20;99.90;;;;;;20974528;28;20059;-79
2021/01/15 08:51:27;;;;;;;17.98;11.43;;;0.40;99.90;;;;;;20983182;28;20494;-81
2021/01/15 09:01:34;;;;;;;33.80;17.50;;;0.20;99.90;;;;;;20982868;28;20052;-80
2021/01/15 09:11:37;;;;;;;12.77;6.70;;;0.40;99.90;;;;;;20930823;28;20067;-80
2021/01/15 09:22:00;;;;;;;73.47;29.38;;;0.30;99.90;;;;;;20926021;28;20414;-82
2021/01/15 09:32:02;;;;;;;13.68;8.45;;;0.60;99.90;;;;;;20917182;28;20499;-80
2021/01/15 09:42:03;;;;;;;15.40;8.15;;;1.00;99.90;;;;;;20933607;28;20035;-80
2021/01/15 09:52:05;;;;;;;18.30;8.40;;;1.20;99.90;;;;;;20973978;28;20032;-81
2021/01/15 10:02:06;;;;;;;10.18;6.47;;;1.40;99.90;;;;;;20969644;28;20091;-80
2021/01/15 10:12:07;;;;;;;19.05;8.82;;;1.60;99.90;;;;;;20879785;28;20029;-79
2021/01/15 10:22:08;;;;;;;;;;;1.30;99.90;;;;;;20856195;28;20398;-77
2021/01/15 10:32:09;;;;;;;13.10;7.10;;;1.10;99.90;;;;;;20948068;28;19913;-80
2021/01/15 10:42:10;;;;;;;18.90;8.57;;;1.90;99.90;;;;;;20916889;28;20029;-79
2021/01/15 10:52:12;;;;;;;15.35;7.97;;;2.20;99.90;;;;;;20941360;28;20098;-77
2021/01/15 11:02:13;;;;;;;18.02;9.38;;;2.50;99.90;;;;;;20881234;28;20037;-79
2021/01/15 11:12:14;;;;;;;7.30;4.87;;;3.30;99.90;;;;;;20830141;28;20033;-79
2021/01/15 11:22:14;;;;;;;9.80;6.27;;;3.90;99.90;;;;;;20834694;28;20060;-81
2021/01/15 11:32:17;;;;;;;10.03;4.87;;;3.60;99.90;;;;;;20863490;28;20045;-80
2021/01/15 11:42:18;;;;;;;9.15;5.35;;;2.60;99.90;;;;;;20849693;28;20484;-79
2021/01/15 11:52:19;;;;;;;8.17;4.67;;;2.70;99.90;;;;;;20852379;28;20036;-78
2021/01/15 12:02:20;;;;;;;6.20;4.10;;;3.40;99.90;;;;;;20914624;28;20033;-80
2021/01/15 12:12:21;;;;;;;5.53;3.17;;;3.50;99.90;;;;;;20953910;28;20060;-81
2021/01/15 12:22:21;;;;;;;3.93;2.93;;;2.90;99.90;;;;;;20945136;28;20100;-82
2021/01/15 12:32:22;;;;;;;5.67;3.63;;;2.80;99.90;;;;;;20945141;28;20040;-81
2021/01/15 12:42:23;;;;;;;4.00;1.97;;;4.70;99.90;;;;;;20914593;28;20442;-82
2021/01/15 12:52:24;;;;;;;3.97;2.70;;;7.10;99.90;;;;;;20892541;28;20509;-81
2021/01/15 13:02:25;;;;;;;5.07;3.17;;;8.00;99.90;;;;;;20875185;28;20057;-82
2021/01/15 13:12:28;;;;;;;7.23;5.10;;;8.30;99.90;;;;;;20928263;22;20052;-76
2021/01/15 13:22:29;;;;;;;13.63;6.95;;;8.80;99.90;;;;;;20981351;28;20551;-77
2021/01/15 13:32:30;;;;;;;36.42;16.52;;;8.90;99.90;;;;;;20979734;28;20063;-77
2021/01/15 13:42:31;;;;;;;6.63;4.30;;;8.70;99.90;;;;;;20991399;28;20502;-77
2021/01/15 13:52:31;;;;;;;6.57;4.05;;;8.70;99.90;;;;;;20990959;28;20488;-79
2021/01/15 14:02:32;;;;;;;7.70;4.47;;;9.20;99.90;;;;;;20970196;28;20036;-78
2021/01/15 14:12:33;;;;;;;9.43;5.87;;;6.80;99.90;;;;;;20978460;28;20045;-77
2021/01/15 14:22:34;;;;;;;7.37;4.43;;;6.80;99.90;;;;;;21035341;28;20040;-77
2021/01/15 14:32:36;;;;;;;6.53;4.53;;;7.80;99.90;;;;;;20987999;28;20052;-78
2021/01/15 14:42:36;;;;;;;5.63;3.57;;;8.00;99.90;;;;;;20980729;28;20090;-78
2021/01/15 14:52:45;;;;;;;5.50;3.07;;;7.50;99.90;;;;;;20962614;28;20762;-77
2021/01/15 15:02:47;;;;;;;3.35;2.40;;;6.90;99.90;;;;;;20961258;28;20557;-77
2021/01/15 15:12:59;;;;;;;4.53;2.78;;;5.30;99.90;;;;;;20960492;28;20048;-77
2021/01/15 15:23:00;;;;;;;52.75;18.50;;;3.90;99.90;;;;;;20954077;28;20067;-77
2021/01/15 15:33:01;;;;;;;9.20;4.07;;;4.00;99.90;;;;;;20942266;28;20069;-77
2021/01/15 15:43:05;;;;;;;7.78;5.80;;;1.20;99.90;;;;;;20965949;28;20653;-76
2021/01/15 15:53:14;;;;;;;7.05;4.00;;;0.10;99.90;;;;;;20937770;28;20162;-77
2021/01/15 16:03:18;;;;;;;9.57;4.93;;;-0.70;99.90;;;;;;20984067;28;20036;-77
2021/01/15 16:13:18;;;;;;;11.38;6.50;;;-0.90;99.90;;;;;;21013193;28;20088;-78
2021/01/15 16:23:19;;;;;;;18.75;9.88;;;-1.50;99.90;;;;;;21015274;28;20028;-78
2021/01/15 16:33:22;;;;;;;82.18;44.33;;;-1.30;99.90;;;;;;20947905;28;20073;-77
2021/01/15 16:43:23;;;;;;;21.55;12.18;;;-1.50;99.90;;;;;;20970143;28;20407;-77
2021/01/15 16:53:24;;;;;;;9.43;5.65;;;-2.30;99.90;;;;;;21004489;28;20037;-76
2021/01/15 17:03:24;;;;;;;14.93;6.65;;;-2.70;99.90;;;;;;21019100;28;20043;-77
2021/01/15 17:13:25;;;;;;;16.23;8.63;;;-3.40;99.90;;;;;;20967249;28;20028;-77
2021/01/15 17:23:26;;;;;;;15.63;6.57;;;-3.30;99.90;;;;;;20990358;28;20096;-78
2021/01/15 17:33:27;;;;;;;13.35;6.40;;;-3.00;99.90;;;;;;20933029;28;20039;-76
2021/01/15 17:43:28;;;;;;;14.27;6.05;;;-3.10;99.90;;;;;;20902180;28;20053;-78
2021/01/15 17:53:30;;;;;;;14.23;7.38;;;-3.60;99.90;;;;;;20992405;28;20031;-77
2021/01/15 18:03:31;;;;;;;15.85;7.68;;;-3.60;99.90;;;;;;21025010;28;20029;-76
2021/01/15 18:13:31;;;;;;;32.08;9.60;;;-3.80;99.90;;;;;;20997847;28;20033;-76
2021/01/15 18:23:33;;;;;;;137.77;15.70;;;-3.70;99.90;;;;;;21012992;28;20055;-75
2021/01/15 18:33:35;;;;;;;32.33;14.35;;;-3.80;99.90;;;;;;21014058;28;20052;-77
2021/01/15 18:43:35;;;;;;;28.88;12.23;;;-4.20;99.90;;;;;;20996565;28;20505;-76
2021/01/15 18:53:36;;;;;;;32.78;11.35;;;-4.40;99.90;;;;;;20973887;28;20036;-77
2021/01/15 19:03:37;;;;;;;53.38;20.33;;;-4.60;99.90;;;;;;20976007;28;20044;-77
2021/01/15 19:13:41;;;;;;;97.88;31.48;;;-4.80;99.90;;;;;;21038640;22;20108;-79
2021/01/15 19:23:42;;;;;;;20.92;9.77;;;-4.90;99.90;;;;;;21171294;28;20146;-80
2021/01/15 19:33:43;;;;;;;25.05;11.00;;;-5.10;99.90;;;;;;21175392;28;20104;-80
2021/01/15 19:43:44;;;;;;;23.45;9.73;;;-5.30;99.90;;;;;;21176187;28;20126;-79
2021/01/15 19:53:45;;;;;;;64.75;11.73;;;-5.20;99.90;;;;;;21171317;28;20088;-80
2021/01/15 20:03:46;;;;;;;90.47;13.38;;;-5.30;99.90;;;;;;21167494;28;20081;-80
2021/01/15 20:13:47;;;;;;;176.13;19.33;;;-5.40;99.90;;;;;;21162344;28;20122;-78
2021/01/15 20:23:48;;;;;;;35.47;14.30;;;-5.40;99.90;;;;;;21175283;28;20038;-78
2021/01/15 20:33:48;;;;;;;37.10;15.80;;;-5.20;99.90;;;;;;21185139;28;20024;-77
2021/01/15 20:43:49;;;;;;;37.15;14.80;;;-4.90;99.90;;;;;;21162549;28;20115;-78
2021/01/15 20:53:52;;;;;;;39.08;14.95;;;-4.50;99.90;;;;;;21160937;28;20023;-79
2021/01/15 21:03:52;;;;;;;36.47;16.67;;;-4.60;99.90;;;;;;21179068;28;20032;-77
2021/01/15 21:13:53;;;;;;;31.50;13.32;;;-4.40;99.90;;;;;;21178618;28;20510;-80
2021/01/15 21:23:54;;;;;;;32.17;12.63;;;-4.50;99.90;;;;;;21210151;28;20288;-78
2021/01/15 21:33:55;;;;;;;33.55;12.30;;;-4.40;99.90;;;;;;21193850;28;20030;-80
2021/01/15 21:43:57;;;;;;;28.85;12.23;;;-4.60;99.90;;;;;;21181921;28;20698;-79
2021/01/15 21:54:01;;;;;;;24.00;11.80;;;-4.60;99.90;;;;;;21130919;28;20036;-78
2021/01/15 22:04:03;;;;;;;20.20;10.73;;;-4.60;99.90;;;;;;21136827;28;20052;-78
2021/01/15 22:14:04;;;;;;;24.50;9.88;;;-4.80;99.90;;;;;;21075937;28;20097;-79
2021/01/15 22:24:05;;;;;;;20.83;10.25;;;-5.30;99.90;;;;;;21017067;28;20029;-77
2021/01/15 22:34:06;;;;;;;19.95;8.30;;;-5.30;99.90;;;;;;21035565;28;20041;-81
2021/01/15 22:44:07;;;;;;;23.23;9.43;;;-5.70;99.90;;;;;;21102715;28;20119;-81
2021/01/15 22:54:08;;;;;;;20.92;9.27;;;-5.80;99.90;;;;;;21086382;28;20032;-80
2021/01/15 23:04:09;;;;;;;21.38;10.30;;;-6.20;99.90;;;;;;21101515;28;20024;-81
2021/01/15 23:14:10;;;;;;;25.02;10.05;;;-6.10;99.90;;;;;;21137852;28;20038;-81
2021/01/15 23:24:11;;;;;;;22.30;9.98;;;-6.70;99.90;;;;;;21166123;28;20028;-79
2021/01/15 23:34:13;;;;;;;26.30;10.45;;;-6.80;99.90;;;;;;21165012;28;20409;-80
2021/01/15 23:44:14;;;;;;;21.00;9.82;;;-7.10;99.90;;;;;;21181952;28;20027;-81
2021/01/15 23:54:14;;;;;;;22.65;9.13;;;-7.20;99.90;;;;;;21163633;28;20066;-79
